Shawano, WI

7:12 AM CDT on May 21, 2018 (GMT -0500)
Shawano

Weather History for KEZS - March, 2013

Change the Weather History Date:

Monday, March 25, 2013

  Actual Average (KCLI) Record (KCLI)
Temperature  
Mean Temperature 32 °F -  
Max Temperature 37 °F 42 °F 77 °F (2007)
Min Temperature 26 °F 22 °F -2 °F (1971)
Degree Days  
Heating Degree Days 34    
Moisture  
Dew Point 22 °F    
Average Humidity 67    
Maximum Humidity 80    
Minimum Humidity 52    
Precipitation  
Precipitation 0.00 in - - ()
Sea Level Pressure  
Sea Level Pressure 29.97 in    
Wind  
Wind Speed 10 mph (North)    
Max Wind Speed 16 mph    
Max Gust Speed 22 mph    
Visibility 10 miles    
Events      
Averages and records for this station are not official NWS values.
T = Trace of Precipitation, MM = Missing Value Source: NWS Daily Summary

Daily Weather History Graph

Daily Weather History Graph

Search for Another Location

Airport or City:

Astronomy

Mar. 25, 2013 Rise Set
Actual Time 6:47 AM CDT 7:13 PM CDT
Civil Twilight 6:18 AM CDT 7:42 PM CDT
Nautical Twilight 5:43 AM CDT 8:17 PM CDT
Astronomical Twilight 5:08 AM CDT 8:53 PM CDT
Moon 5:42 PM CDT (3/25) 5:34 AM CDT (3/25)
Length of Visible Light 13h 24m
Length of Day
12h 25m
Waxing Gibbous, 96% of the Moon is Illuminated
Mar 25
Waxing Gibbous
Mar 27
Full
Apr 2
Last Quarter
Apr 10
New
Apr 18
First Quarter

Hourly Weather History & Observations

Time (CDT) Temp. Windchill Dew Point Humidity Pressure Visibility Wind Dir Wind Speed Gust Speed Precip Events Conditions
12:15 AM 28.4 °F 20.4 °F 17.6 °F 64% 29.91 in 10.0 mi NNE 8.1 mph - N/A   Clear
12:35 AM 28.4 °F 21.2 °F 17.6 °F 64% 29.91 in 10.0 mi North 6.9 mph - N/A   Clear
12:55 AM 26.6 °F 19.1 °F 17.6 °F 69% 29.90 in 10.0 mi North 6.9 mph - N/A   Clear
1:15 AM 28.4 °F 21.2 °F 19.4 °F 69% 29.90 in 10.0 mi North 6.9 mph - N/A   Clear
1:35 AM 26.6 °F 17.5 °F 19.4 °F 74% 29.89 in 10.0 mi North 9.2 mph - N/A   Clear
1:55 AM 28.4 °F 20.4 °F 19.4 °F 69% 29.89 in 10.0 mi North 8.1 mph - N/A   Clear
2:15 AM 26.6 °F 16.8 °F 19.4 °F 74% 29.89 in 10.0 mi North 10.4 mph - N/A   Clear
2:35 AM 26.6 °F 17.5 °F 19.4 °F 74% 29.89 in 10.0 mi North 9.2 mph - N/A   Clear
2:55 AM 26.6 °F 18.2 °F 19.4 °F 74% 29.88 in 10.0 mi North 8.1 mph - N/A   Clear
3:15 AM 26.6 °F 16.8 °F 19.4 °F 74% 29.88 in 10.0 mi North 10.4 mph - N/A   Clear
3:35 AM 26.6 °F 17.5 °F 19.4 °F 74% 29.88 in 10.0 mi North 9.2 mph - N/A   Clear
4:15 AM 26.6 °F 16.8 °F 21.2 °F 80% 29.88 in 10.0 mi North 10.4 mph - N/A   Clear
4:35 AM 26.6 °F 16.8 °F 21.2 °F 80% 29.88 in 10.0 mi North 10.4 mph - N/A   Clear
4:55 AM 26.6 °F 16.8 °F 21.2 °F 80% 29.87 in 10.0 mi North 10.4 mph - N/A   Clear
5:15 AM 26.6 °F 16.8 °F 21.2 °F 80% 29.87 in 10.0 mi North 10.4 mph - N/A   Clear
5:35 AM 26.6 °F 16.8 °F 21.2 °F 80% 29.88 in 10.0 mi North 10.4 mph - N/A   Clear
5:55 AM 26.6 °F 17.5 °F 21.2 °F 80% 29.88 in 10.0 mi North 9.2 mph - N/A   Clear
6:15 AM 26.6 °F 17.5 °F 21.2 °F 80% 29.89 in 10.0 mi North 9.2 mph - N/A   Clear
6:35 AM 26.6 °F 17.5 °F 21.2 °F 80% 29.89 in 10.0 mi North 9.2 mph - N/A   Clear
7:15 AM 26.6 °F 17.5 °F 21.2 °F 80% 29.91 in 10.0 mi North 9.2 mph - N/A   Clear
7:35 AM 26.6 °F 17.5 °F 21.2 °F 80% 29.91 in 10.0 mi North 9.2 mph - N/A   Clear
8:15 AM 28.4 °F 19.1 °F 21.2 °F 74% 29.92 in 10.0 mi North 10.4 mph - N/A   Overcast
8:35 AM 30.2 °F 19.8 °F 23.0 °F 75% 29.92 in 10.0 mi North 13.8 mph 17.3 mph N/A   Overcast
8:55 AM 30.2 °F 19.3 °F 23.0 °F 75% 29.93 in 10.0 mi NNE 15.0 mph - N/A   Overcast
9:15 AM 30.2 °F 20.8 °F 23.0 °F 75% 29.94 in 10.0 mi NNE 11.5 mph - N/A   Overcast
9:55 AM 32.0 °F 22.5 °F 23.0 °F 69% 29.94 in 10.0 mi NNE 12.7 mph 16.1 mph N/A   Overcast
10:15 AM 32.0 °F 22.5 °F 23.0 °F 69% 29.95 in 10.0 mi NNE 12.7 mph 17.3 mph N/A   Overcast
10:35 AM 32.0 °F 21.6 °F 23.0 °F 69% 29.95 in 10.0 mi NNE 15.0 mph 21.9 mph N/A   Overcast
10:55 AM 32.0 °F 23.0 °F 23.0 °F 69% 29.96 in 10.0 mi NNE 11.5 mph - N/A   Overcast
11:15 AM 32.0 °F 22.1 °F 23.0 °F 69% 29.96 in 10.0 mi NNE 13.8 mph - N/A   Overcast
11:35 AM 32.0 °F 23.6 °F 23.0 °F 69% 29.96 in 10.0 mi NE 10.4 mph 18.4 mph N/A   Overcast
11:55 AM 33.8 °F 24.8 °F 23.0 °F 65% 29.96 in 10.0 mi NE 12.7 mph - N/A   Overcast
12:15 PM 33.8 °F 26.4 °F 24.8 °F 70% 29.97 in 10.0 mi NNE 9.2 mph - N/A   Overcast
12:35 PM 33.8 °F 25.8 °F 23.0 °F 65% 29.96 in 10.0 mi North 10.4 mph - N/A   Overcast
12:55 PM 35.6 °F 28.0 °F 23.0 °F 60% 29.96 in 10.0 mi NNE 10.4 mph - N/A   Overcast
1:15 PM 35.6 °F 28.6 °F 23.0 °F 60% 29.96 in 10.0 mi NNE 9.2 mph - N/A   Overcast
1:35 PM 35.6 °F 28.0 °F 23.0 °F 60% 29.96 in 10.0 mi NNE 10.4 mph - N/A   Overcast
1:55 PM 35.6 °F 26.2 °F 23.0 °F 60% 29.96 in 10.0 mi North 15.0 mph 19.6 mph N/A   Overcast
2:15 PM 37.4 °F 28.2 °F 21.2 °F 52% 29.95 in 10.0 mi NNE 16.1 mph 20.7 mph N/A   Overcast
2:35 PM 37.4 °F 28.5 °F 23.0 °F 56% 29.95 in 10.0 mi NNE 15.0 mph 21.9 mph N/A   Overcast
2:55 PM 37.4 °F 29.3 °F 23.0 °F 56% 29.95 in 10.0 mi NNE 12.7 mph - N/A   Overcast
3:15 PM 37.4 °F 29.8 °F 23.0 °F 56% 29.95 in 10.0 mi NNE 11.5 mph 18.4 mph N/A   Overcast
3:35 PM 37.4 °F 31.4 °F 23.0 °F 56% 29.95 in 10.0 mi North 8.1 mph - N/A   Overcast
4:15 PM 37.4 °F 29.8 °F 23.0 °F 56% 29.96 in 10.0 mi North 11.5 mph - N/A   Overcast
4:35 PM 37.4 °F 31.4 °F 23.0 °F 56% 29.97 in 10.0 mi NNE 8.1 mph 11.5 mph N/A   Overcast
4:55 PM 37.4 °F 30.3 °F 23.0 °F 56% 29.97 in 10.0 mi NNE 10.4 mph - N/A   Overcast
5:15 PM 37.4 °F 29.3 °F 23.0 °F 56% 29.98 in 10.0 mi NNE 12.7 mph - N/A   Overcast
5:35 PM 35.6 °F 28.6 °F 23.0 °F 60% 29.99 in 10.0 mi North 9.2 mph - N/A   Overcast
5:55 PM 35.6 °F 27.5 °F 23.0 °F 60% 30.00 in 10.0 mi North 11.5 mph - N/A   Overcast
6:15 PM 35.6 °F 27.5 °F 21.2 °F 56% 30.01 in 10.0 mi North 11.5 mph - N/A   Overcast
6:55 PM 35.6 °F 28.0 °F 23.0 °F 60% 30.03 in 10.0 mi North 10.4 mph - N/A   Overcast
7:15 PM 35.6 °F 28.6 °F 21.2 °F 56% 30.04 in 10.0 mi North 9.2 mph - N/A   Overcast
7:35 PM 35.6 °F 28.6 °F 21.2 °F 56% 30.05 in 10.0 mi North 9.2 mph - N/A   Overcast
7:55 PM 33.8 °F 26.4 °F 23.0 °F 65% 30.06 in 10.0 mi North 9.2 mph - N/A   Overcast
8:15 PM 35.6 °F 29.9 °F 21.2 °F 56% 30.06 in 10.0 mi NNW 6.9 mph - N/A   Overcast
8:35 PM 33.8 °F 27.0 °F 21.2 °F 60% 30.07 in 10.0 mi North 8.1 mph - N/A   Overcast
8:55 PM 33.8 °F 26.4 °F 23.0 °F 65% 30.07 in 10.0 mi North 9.2 mph - N/A   Overcast
9:15 PM 33.8 °F 26.4 °F 23.0 °F 65% 30.08 in 10.0 mi NNW 9.2 mph - N/A   Overcast
9:35 PM 33.8 °F 27.0 °F 23.0 °F 65% 30.09 in 10.0 mi North 8.1 mph - N/A   Overcast
9:55 PM 33.8 °F 27.0 °F 21.2 °F 60% 30.09 in 10.0 mi North 8.1 mph - N/A   Overcast
10:15 PM 33.8 °F 27.7 °F 21.2 °F 60% 30.09 in 10.0 mi North 6.9 mph - N/A   Overcast
10:35 PM 32.0 °F 25.6 °F 21.2 °F 64% 30.10 in 10.0 mi North 6.9 mph - N/A   Overcast
10:55 PM 32.0 °F 24.2 °F 21.2 °F 64% 30.10 in 10.0 mi North 9.2 mph - N/A   Overcast
11:15 PM 32.0 °F 24.8 °F 21.2 °F 64% 30.11 in 10.0 mi North 8.1 mph - N/A   Overcast
11:35 PM 32.0 °F 24.8 °F 21.2 °F 64% 30.11 in 10.0 mi NNW 8.1 mph - N/A   Overcast
11:55 PM 32.0 °F 26.4 °F 21.2 °F 64% 30.11 in 10.0 mi North 5.8 mph - N/A   Overcast